Terminal Aerodrome Forecast
Issued by NWS Mt. Holly, NJ

Home | Current Version | Previous Version | Text Only | Print | Product List | Glossary On
Versions: 1 2 3 4 5 6 7 8 9 10 11 12 13 14 15 16 17 18 19 20 21
000
FTUS41 KPHI 300521
TAFACY
TAF
KACY 300521Z 3006/0106 19004KT P6SM SKC
     FM300900 15003KT P6SM SCT120
     FM301200 16006KT P6SM BKN120
     FM301600 16012G19KT P6SM SCT090
     FM010000 16006KT P6SM SHRA SCT035 BKN050=

USA.gov is the U.S. government's official web portal to all federal, state and local government web resources and services.